createdAt,value
2022-12-25T00:03:53.052Z,7.50
2022-12-25T00:08:56.161Z,5.40
2022-12-25T00:13:59.174Z,7.30
2022-12-25T00:19:02.304Z,6.80
2022-12-25T00:24:05.662Z,8.00
2022-12-25T00:29:13.010Z,7.80
2022-12-25T00:34:16.011Z,8.10
2022-12-25T00:39:19.210Z,8.00
2022-12-25T00:44:22.226Z,8.40
2022-12-25T00:49:25.453Z,6.80
2022-12-25T00:54:28.751Z,6.70
2022-12-25T00:59:33.537Z,6.50
2022-12-25T01:04:37.752Z,7.10
2022-12-25T01:09:59.273Z,8.20
2022-12-25T01:15:02.585Z,7.30
2022-12-25T01:20:06.350Z,6.60
2022-12-25T01:25:10.753Z,7.20
2022-12-25T01:30:13.856Z,7.60
2022-12-25T01:35:16.968Z,7.60
2022-12-25T01:40:20.189Z,7.70
2022-12-25T01:45:40.969Z,11.50
2022-12-25T01:50:50.047Z,7.80
2022-12-25T01:55:59.405Z,6.50
2022-12-25T02:01:02.543Z,7.60
2022-12-25T02:06:06.829Z,7.60
2022-12-25T02:11:29.833Z,8.30
2022-12-25T02:16:56.760Z,8.00
2022-12-25T02:22:46.600Z,7.40
2022-12-25T02:28:07.631Z,8.20
2022-12-25T02:33:58.677Z,8.20
2022-12-25T02:39:24.200Z,8.20
2022-12-25T02:44:48.093Z,8.80
2022-12-25T02:50:12.941Z,8.20
2022-12-25T02:55:40.494Z,8.50
2022-12-25T03:01:07.274Z,8.60
2022-12-25T03:06:30.042Z,8.10
2022-12-25T03:11:33.352Z,8.70
2022-12-25T03:16:51.891Z,8.20
2022-12-25T03:22:14.790Z,8.70
2022-12-25T03:27:17.899Z,8.20
2022-12-25T03:32:27.152Z,8.80
2022-12-25T03:37:33.026Z,9.10
2022-12-25T03:43:05.623Z,8.00
2022-12-25T03:48:13.624Z,9.20
2022-12-25T03:53:43.483Z,8.00
2022-12-25T03:59:22.904Z,8.50
2022-12-25T04:04:45.709Z,8.90
2022-12-25T04:10:07.250Z,8.00
2022-12-25T04:15:29.556Z,7.50
2022-12-25T04:20:51.461Z,7.50
2022-12-25T04:26:16.074Z,8.30
2022-12-25T04:31:37.877Z,8.40
2022-12-25T04:36:41.134Z,8.30
2022-12-25T04:41:44.240Z,8.60
2022-12-25T04:46:47.271Z,9.40
2022-12-25T04:51:50.461Z,9.00
2022-12-25T04:56:53.671Z,8.90
2022-12-25T05:01:56.726Z,9.20
2022-12-25T05:06:59.894Z,9.80
2022-12-25T05:12:03.106Z,9.50
2022-12-25T05:17:08.048Z,7.90
2022-12-25T05:22:11.069Z,8.80
2022-12-25T05:27:15.359Z,10.60
2022-12-25T05:32:18.302Z,9.20
2022-12-25T05:37:21.308Z,9.40
2022-12-25T05:42:24.414Z,8.50
2022-12-25T05:47:27.318Z,9.30
2022-12-25T05:52:34.834Z,10.70
2022-12-25T05:57:37.735Z,9.60
2022-12-25T06:02:40.754Z,10.50
2022-12-25T06:07:43.951Z,11.50
2022-12-25T06:12:46.962Z,10.70
2022-12-25T06:17:49.967Z,11.10
2022-12-25T06:22:53.174Z,11.10
2022-12-25T06:27:56.395Z,10.60
2022-12-25T06:33:00.501Z,11.00
2022-12-25T06:38:03.533Z,10.60
2022-12-25T06:43:06.532Z,11.40
2022-12-25T06:48:09.508Z,13.70
2022-12-25T06:53:12.647Z,10.80
2022-12-25T06:58:15.766Z,14.30
2022-12-25T07:03:21.744Z,18.80
2022-12-25T07:08:24.738Z,12.30
2022-12-25T07:13:27.843Z,11.30
2022-12-25T07:18:31.896Z,12.40
2022-12-25T07:23:35.375Z,13.20
2022-12-25T07:28:38.941Z,12.20
2022-12-25T07:33:42.432Z,13.40
2022-12-25T07:38:49.819Z,11.00
2022-12-25T07:43:54.061Z,16.90
2022-12-25T07:48:57.087Z,13.80
2022-12-25T07:54:00.134Z,22.10
2022-12-25T07:59:03.210Z,18.00
2022-12-25T08:04:06.469Z,14.70
2022-12-25T08:09:12.907Z,15.60
2022-12-25T08:14:15.916Z,24.30
2022-12-25T08:19:19.655Z,13.10
2022-12-25T08:24:24.954Z,13.90
2022-12-25T08:29:29.344Z,15.40
2022-12-25T08:34:33.013Z,14.00
2022-12-25T08:39:36.470Z,32.40
2022-12-25T08:44:39.585Z,18.50
2022-12-25T08:49:42.657Z,16.10
2022-12-25T08:54:47.227Z,16.30
2022-12-25T08:59:50.489Z,16.40
2022-12-25T09:04:53.544Z,22.90
2022-12-25T09:09:56.669Z,18.00
2022-12-25T09:15:00.121Z,21.10
2022-12-25T09:20:03.814Z,47.00
2022-12-25T09:25:07.581Z,39.60
2022-12-25T09:30:11.459Z,35.20
2022-12-25T09:35:17.936Z,22.70
2022-12-25T09:40:30.366Z,20.20
2022-12-25T09:45:38.286Z,35.40
2022-12-25T09:50:48.572Z,27.70
2022-12-25T09:56:27.390Z,19.70
2022-12-25T10:01:30.404Z,16.10
2022-12-25T10:06:33.521Z,11.70
2022-12-25T10:12:17.805Z,13.40
2022-12-25T10:17:52.665Z,12.80
2022-12-25T10:23:01.578Z,12.40
2022-12-25T10:28:14.675Z,23.00
2022-12-25T10:33:17.649Z,16.10
2022-12-25T10:38:20.752Z,14.70
2022-12-25T10:43:45.569Z,15.00
2022-12-25T10:48:53.967Z,16.30
2022-12-25T10:53:58.249Z,17.40
2022-12-25T10:59:10.781Z,15.80
2022-12-25T11:04:23.520Z,14.80
2022-12-25T11:09:27.723Z,14.70
2022-12-25T11:14:31.480Z,14.50
2022-12-25T11:19:35.092Z,14.00
2022-12-25T11:24:38.189Z,13.20
2022-12-25T11:29:44.071Z,10.30
2022-12-25T11:34:49.149Z,14.90
2022-12-25T11:39:52.226Z,11.20
2022-12-25T11:45:05.479Z,13.40
2022-12-25T11:50:31.007Z,13.50
2022-12-25T11:55:39.953Z,14.70
2022-12-25T12:00:46.652Z,16.80
2022-12-25T12:05:57.204Z,14.30
2022-12-25T12:11:35.684Z,13.20
2022-12-25T12:16:39.030Z,13.30
2022-12-25T12:21:49.472Z,14.50
2022-12-25T12:27:16.916Z,11.00
2022-12-25T12:32:50.544Z,13.10
2022-12-25T12:38:23.671Z,10.30
2022-12-25T12:43:31.919Z,10.80
2022-12-25T12:48:43.307Z,10.30
2022-12-25T12:53:48.681Z,10.60
2022-12-25T12:58:53.950Z,10.40
2022-12-25T13:04:15.620Z,16.20
2022-12-25T13:09:39.303Z,19.30
2022-12-25T13:14:50.936Z,14.30
2022-12-25T13:20:05.804Z,12.10
2022-12-25T13:25:24.600Z,11.90
2022-12-25T13:30:33.491Z,12.20
2022-12-25T13:35:44.566Z,11.40
2022-12-25T13:41:14.441Z,12.50
2022-12-25T13:46:28.040Z,13.80
2022-12-25T13:51:34.571Z,10.30
2022-12-25T13:56:53.435Z,11.90
2022-12-25T14:02:04.280Z,12.10
2022-12-25T14:07:13.336Z,12.30
2022-12-25T14:17:27.912Z,11.50
2022-12-25T14:22:35.996Z,11.50
2022-12-25T14:27:43.504Z,11.90
2022-12-25T14:32:54.953Z,11.90
2022-12-25T14:38:02.314Z,12.80
2022-12-25T14:43:25.754Z,11.40
2022-12-25T14:48:33.152Z,12.80
2022-12-25T14:53:50.093Z,13.20
2022-12-25T14:59:00.905Z,13.00
2022-12-25T15:04:25.066Z,13.70
2022-12-25T15:09:30.142Z,12.60
2022-12-25T15:14:36.502Z,12.40
2022-12-25T15:19:39.657Z,11.40
2022-12-25T15:24:42.631Z,12.20
2022-12-25T15:30:09.265Z,11.90
2022-12-25T15:35:16.590Z,11.70
2022-12-25T15:40:21.598Z,12.50
2022-12-25T15:45:27.818Z,11.70
2022-12-25T15:50:32.752Z,12.10
2022-12-25T15:55:36.912Z,11.40
2022-12-25T16:00:39.918Z,12.50
2022-12-25T16:05:42.940Z,11.80
2022-12-25T16:10:46.227Z,11.60
2022-12-25T16:15:49.305Z,11.00
2022-12-25T16:20:53.862Z,14.50
2022-12-25T16:25:56.824Z,11.80
2022-12-25T16:30:59.938Z,13.60
2022-12-25T16:36:03.031Z,16.20
2022-12-25T16:41:06.211Z,16.10
2022-12-25T16:46:15.534Z,15.40
2022-12-25T16:51:20.969Z,15.70
2022-12-25T16:56:28.668Z,18.00
2022-12-25T17:01:31.963Z,15.90
2022-12-25T17:06:35.867Z,16.00
2022-12-25T17:11:38.903Z,18.30
2022-12-25T17:16:41.997Z,17.40
2022-12-25T17:21:45.631Z,16.30
2022-12-25T17:26:48.869Z,18.30
2022-12-25T17:31:52.128Z,19.20
2022-12-25T17:36:55.267Z,16.60
2022-12-25T17:41:58.586Z,18.20
2022-12-25T17:47:01.618Z,18.90
2022-12-25T17:52:04.888Z,18.00
2022-12-25T17:57:08.004Z,19.10
2022-12-25T18:02:12.151Z,20.40
2022-12-25T18:07:16.169Z,16.00
2022-12-25T18:12:19.277Z,17.80
2022-12-25T18:17:22.284Z,16.00
2022-12-25T18:22:25.397Z,17.70
2022-12-25T18:27:28.600Z,18.70
2022-12-25T18:32:31.846Z,17.50
2022-12-25T18:37:40.020Z,19.60
2022-12-25T18:42:46.455Z,19.50
2022-12-25T18:47:49.434Z,17.90
2022-12-25T18:52:52.574Z,18.00
2022-12-25T18:57:56.433Z,20.50
2022-12-25T19:02:59.773Z,20.20
2022-12-25T19:08:03.509Z,20.30
2022-12-25T19:13:07.033Z,20.50
2022-12-25T19:18:10.743Z,20.20
2022-12-25T19:23:13.753Z,21.10
2022-12-25T19:28:17.987Z,18.00
2022-12-25T19:33:22.931Z,19.70
2022-12-25T19:38:26.215Z,17.80
2022-12-25T19:43:38.174Z,21.60
2022-12-25T19:48:41.292Z,17.30
2022-12-25T19:53:45.179Z,20.40
2022-12-25T19:58:48.321Z,18.30
2022-12-25T20:03:52.121Z,18.70
2022-12-25T20:08:57.881Z,18.30
2022-12-25T20:14:00.922Z,18.00
2022-12-25T20:19:04.437Z,19.70
2022-12-25T20:24:10.433Z,20.00
2022-12-25T20:29:13.531Z,19.60
2022-12-25T20:34:16.533Z,16.60
2022-12-25T20:39:19.744Z,18.80
2022-12-25T20:44:22.751Z,18.10
2022-12-25T20:49:26.071Z,17.10
2022-12-25T20:54:29.066Z,18.20
2022-12-25T20:59:37.351Z,18.90
2022-12-25T21:04:41.342Z,18.00
2022-12-25T21:09:44.539Z,18.50
2022-12-25T21:14:47.547Z,19.90
2022-12-25T21:19:50.959Z,18.10
2022-12-25T21:24:54.075Z,17.80
2022-12-25T21:29:57.182Z,17.00
2022-12-25T21:35:00.291Z,17.20
2022-12-25T21:40:03.507Z,14.30
2022-12-25T21:45:07.286Z,14.40
2022-12-25T21:50:32.428Z,15.50
2022-12-25T21:55:37.815Z,15.10
2022-12-25T22:00:41.022Z,15.90
2022-12-25T22:06:02.867Z,14.50
2022-12-25T22:11:05.784Z,16.20
2022-12-25T22:16:27.622Z,15.50
2022-12-25T22:21:30.730Z,15.50
2022-12-25T22:26:35.353Z,15.50
2022-12-25T22:31:42.705Z,15.70
2022-12-25T22:36:49.881Z,16.10
2022-12-25T22:41:57.607Z,14.20
2022-12-25T22:47:00.818Z,14.10
2022-12-25T22:52:04.521Z,13.40
2022-12-25T22:57:07.552Z,14.50
2022-12-25T23:02:10.733Z,13.40
2022-12-25T23:07:14.692Z,11.70
2022-12-25T23:12:36.431Z,14.50
2022-12-25T23:17:58.384Z,14.20
2022-12-25T23:23:20.538Z,12.40
2022-12-25T23:28:56.101Z,14.50
2022-12-25T23:33:59.728Z,13.60
2022-12-25T23:39:09.471Z,14.40
2022-12-25T23:44:13.937Z,13.90
2022-12-25T23:49:17.155Z,13.10
2022-12-25T23:54:23.340Z,13.30
2022-12-25T23:59:28.448Z,14.20
